sensor_id;sensor_type;location;lat;lon;timestamp;pressure;altitude;pressure_sealevel;temperature;humidity
29985;BME280;17387;42.690;23.328;2022-09-13T00:00:13;47616.03;;;-144.02;74.39
29985;BME280;17387;42.690;23.328;2022-09-13T00:02:38;47607.91;;;-144.02;74.38
29985;BME280;17387;42.690;23.328;2022-09-13T00:05:04;47559.19;;;-144.02;74.42
29985;BME280;17387;42.690;23.328;2022-09-13T00:07:30;47632.28;;;-144.02;74.14
29985;BME280;17387;42.690;23.328;2022-09-13T00:09:55;47593.69;;;-144.02;73.78
29985;BME280;17387;42.690;23.328;2022-09-13T00:12:20;47597.75;;;-144.02;73.48
29985;BME280;17387;42.690;23.328;2022-09-13T00:14:46;47611.97;;;-144.02;73.33
29985;BME280;17387;42.690;23.328;2022-09-13T00:17:12;47599.78;;;-144.02;73.25
29985;BME280;17387;42.690;23.328;2022-09-13T00:19:38;47591.66;;;-144.02;73.07
29985;BME280;17387;42.690;23.328;2022-09-13T00:22:03;47577.44;;;-144.02;73.18
29985;BME280;17387;42.690;23.328;2022-09-13T00:24:31;47573.38;;;-144.02;73.68
29985;BME280;17387;42.690;23.328;2022-09-13T00:26:58;47664.78;;;-144.02;73.54
29985;BME280;17387;42.690;23.328;2022-09-13T00:29:25;47620.09;;;-144.02;73.38
29985;BME280;17387;42.690;23.328;2022-09-13T00:31:50;47575.44;;;-144.02;73.29
29985;BME280;17387;42.690;23.328;2022-09-13T00:34:16;47603.84;;;-144.02;73.13
29985;BME280;17387;42.690;23.328;2022-09-13T00:36:41;47571.38;;;-144.02;72.91
29985;BME280;17387;42.690;23.328;2022-09-13T00:39:08;47591.66;;;-144.02;73.24
29985;BME280;17387;42.690;23.328;2022-09-13T00:41:34;47597.75;;;-144.02;73.66
29985;BME280;17387;42.690;23.328;2022-09-13T00:44:01;47620.09;;;-144.02;73.33
29985;BME280;17387;42.690;23.328;2022-09-13T00:46:39;47585.56;;;-144.02;73.42
29985;BME280;17387;42.690;23.328;2022-09-13T00:49:14;47599.78;;;-144.02;73.06
29985;BME280;17387;42.690;23.328;2022-09-13T00:51:44;47603.84;;;-144.02;73.36
29985;BME280;17387;42.690;23.328;2022-09-13T00:54:14;47662.75;;;-144.02;73.44
29985;BME280;17387;42.690;23.328;2022-09-13T00:56:43;47607.91;;;-144.02;73.54
29985;BME280;17387;42.690;23.328;2022-09-13T00:59:20;47603.84;;;-144.02;73.02
29985;BME280;17387;42.690;23.328;2022-09-13T01:01:52;47664.78;;;-144.02;72.94
29985;BME280;17387;42.690;23.328;2022-09-13T01:04:19;47601.81;;;-144.02;72.94
29985;BME280;17387;42.690;23.328;2022-09-13T01:06:46;47632.28;;;-144.02;72.73
29985;BME280;17387;42.690;23.328;2022-09-13T01:09:12;47614.00;;;-144.02;72.94
29985;BME280;17387;42.690;23.328;2022-09-13T01:11:47;47620.09;;;-144.02;72.52
29985;BME280;17387;42.690;23.328;2022-09-13T01:14:17;47618.06;;;-144.02;72.41
29985;BME280;17387;42.690;23.328;2022-09-13T01:16:43;47648.53;;;-144.02;72.34
29985;BME280;17387;42.690;23.328;2022-09-13T01:19:09;47603.84;;;-144.02;72.94
29985;BME280;17387;42.690;23.328;2022-09-13T01:30:19;47597.75;;;-144.02;72.23
29985;BME280;17387;42.690;23.328;2022-09-13T01:46:17;47583.53;;;-144.02;73.33
29985;BME280;17387;42.690;23.328;2022-09-13T01:48:59;47597.75;;;-144.02;73.57
29985;BME280;17387;42.690;23.328;2022-09-13T01:51:31;47607.91;;;-144.02;73.34
29985;BME280;17387;42.690;23.328;2022-09-13T01:57:14;47614.00;;;-144.02;74.24
29985;BME280;17387;42.690;23.328;2022-09-13T01:59:50;47595.72;;;-144.02;74.02
29985;BME280;17387;42.690;23.328;2022-09-13T02:02:18;47591.66;;;-144.02;74.17
29985;BME280;17387;42.690;23.328;2022-09-13T02:04:54;47599.78;;;-144.02;74.17
29985;BME280;17387;42.690;23.328;2022-09-13T02:07:34;47579.47;;;-144.02;74.76
29985;BME280;17387;42.690;23.328;2022-09-13T02:10:21;47614.00;;;-144.02;74.74
29985;BME280;17387;42.690;23.328;2022-09-13T02:12:50;47575.44;;;-144.02;74.98
29985;BME280;17387;42.690;23.328;2022-09-13T02:15:24;47595.72;;;-144.02;75.01
29985;BME280;17387;42.690;23.328;2022-09-13T02:17:59;47591.66;;;-144.02;75.61
29985;BME280;17387;42.690;23.328;2022-09-13T02:20:32;47599.78;;;-144.02;75.86
29985;BME280;17387;42.690;23.328;2022-09-13T02:23:04;47616.03;;;-144.02;76.14
29985;BME280;17387;42.690;23.328;2022-09-13T02:25:34;47636.34;;;-144.02;76.75
29985;BME280;17387;42.690;23.328;2022-09-13T02:28:04;47642.44;;;-144.02;77.09
29985;BME280;17387;42.690;23.328;2022-09-13T02:30:32;47603.84;;;-144.02;77.17
29985;BME280;17387;42.690;23.328;2022-09-13T02:33:18;47599.78;;;-144.02;77.60
29985;BME280;17387;42.690;23.328;2022-09-13T02:36:04;47668.84;;;-144.02;77.25
29985;BME280;17387;42.690;23.328;2022-09-13T02:38:37;47597.75;;;-144.02;77.42
29985;BME280;17387;42.690;23.328;2022-09-13T02:44:45;47614.00;;;-144.02;77.96
29985;BME280;17387;42.690;23.328;2022-09-13T02:47:15;47620.09;;;-144.02;78.14
29985;BME280;17387;42.690;23.328;2022-09-13T02:57:59;47630.25;;;-144.02;78.76
29985;BME280;17387;42.690;23.328;2022-09-13T03:00:27;47603.84;;;-144.02;78.78
29985;BME280;17387;42.690;23.328;2022-09-13T03:02:55;47620.09;;;-144.02;78.78
29985;BME280;17387;42.690;23.328;2022-09-13T03:05:21;47640.41;;;-144.02;78.56
29985;BME280;17387;42.690;23.328;2022-09-13T03:07:47;47597.75;;;-144.02;78.57
29985;BME280;17387;42.690;23.328;2022-09-13T03:10:14;47620.09;;;-144.02;78.56
29985;BME280;17387;42.690;23.328;2022-09-13T03:24:27;47618.06;;;-144.02;77.95
29985;BME280;17387;42.690;23.328;2022-09-13T03:29:54;47622.13;;;-144.02;78.37
29985;BME280;17387;42.690;23.328;2022-09-13T03:32:51;47630.25;;;-144.02;78.56
29985;BME280;17387;42.690;23.328;2022-09-13T03:35:50;47652.59;;;-144.02;78.65
29985;BME280;17387;42.690;23.328;2022-09-13T03:38:27;47620.09;;;-144.02;78.54
29985;BME280;17387;42.690;23.328;2022-09-13T03:41:00;47632.28;;;-144.02;77.58
29985;BME280;17387;42.690;23.328;2022-09-13T03:43:49;47654.63;;;-144.02;77.92
29985;BME280;17387;42.690;23.328;2022-09-13T03:46:22;47591.66;;;-144.02;78.26
29985;BME280;17387;42.690;23.328;2022-09-13T03:48:49;47646.50;;;-144.02;78.37
29985;BME280;17387;42.690;23.328;2022-09-13T03:51:15;47579.47;;;-144.02;78.44
29985;BME280;17387;42.690;23.328;2022-09-13T03:53:46;47681.03;;;-144.02;78.60
29985;BME280;17387;42.690;23.328;2022-09-13T03:56:13;47656.66;;;-144.02;78.57
29985;BME280;17387;42.690;23.328;2022-09-13T03:58:39;47605.88;;;-144.02;78.72
29985;BME280;17387;42.690;23.328;2022-09-13T04:01:05;47644.47;;;-144.02;78.34
29985;BME280;17387;42.690;23.328;2022-09-13T04:03:31;47583.53;;;-144.02;78.52
29985;BME280;17387;42.690;23.328;2022-09-13T04:05:56;47632.28;;;-144.02;78.97
29985;BME280;17387;42.690;23.328;2022-09-13T04:08:21;47630.25;;;-144.02;79.45
29985;BME280;17387;42.690;23.328;2022-09-13T04:10:49;47607.91;;;-144.02;79.36
29985;BME280;17387;42.690;23.328;2022-09-13T04:13:15;47632.28;;;-144.02;79.52
29985;BME280;17387;42.690;23.328;2022-09-13T04:15:41;47668.84;;;-144.02;78.70
29985;BME280;17387;42.690;23.328;2022-09-13T04:18:06;47654.63;;;-144.02;78.76
29985;BME280;17387;42.690;23.328;2022-09-13T04:20:33;47622.13;;;-144.02;78.78
29985;BME280;17387;42.690;23.328;2022-09-13T04:23:00;47599.78;;;-144.02;78.70
29985;BME280;17387;42.690;23.328;2022-09-13T04:25:25;47599.78;;;-144.02;78.63
29985;BME280;17387;42.690;23.328;2022-09-13T04:27:55;47614.00;;;-144.02;78.75
29985;BME280;17387;42.690;23.328;2022-09-13T04:30:21;47624.16;;;-144.02;78.82
29985;BME280;17387;42.690;23.328;2022-09-13T04:32:47;47634.31;;;-144.02;78.36
29985;BME280;17387;42.690;23.328;2022-09-13T04:35:13;47603.84;;;-144.02;78.40
29985;BME280;17387;42.690;23.328;2022-09-13T04:37:41;47595.72;;;-144.02;78.47
29985;BME280;17387;42.690;23.328;2022-09-13T04:40:07;47662.75;;;-144.02;78.49
29985;BME280;17387;42.690;23.328;2022-09-13T04:42:33;47603.84;;;-144.02;78.02
29985;BME280;17387;42.690;23.328;2022-09-13T04:44:58;47620.09;;;-144.02;78.08
29985;BME280;17387;42.690;23.328;2022-09-13T04:47:24;47632.28;;;-144.02;77.88
29985;BME280;17387;42.690;23.328;2022-09-13T04:49:49;47648.53;;;-144.02;77.28
29985;BME280;17387;42.690;23.328;2022-09-13T04:52:15;47628.22;;;-144.02;76.96
29985;BME280;17387;42.690;23.328;2022-09-13T04:54:40;47640.41;;;-144.02;76.41
29985;BME280;17387;42.690;23.328;2022-09-13T04:57:06;47603.84;;;-144.02;76.35
29985;BME280;17387;42.690;23.328;2022-09-13T04:59:31;47607.91;;;-144.02;75.59
29985;BME280;17387;42.690;23.328;2022-09-13T05:01:57;47591.66;;;-144.02;74.91
29985;BME280;17387;42.690;23.328;2022-09-13T05:04:22;47603.84;;;-144.02;74.38
29985;BME280;17387;42.690;23.328;2022-09-13T05:06:48;47599.78;;;-144.02;74.89
29985;BME280;17387;42.690;23.328;2022-09-13T05:09:14;47656.66;;;-144.02;74.40
29985;BME280;17387;42.690;23.328;2022-09-13T05:11:40;47662.75;;;-144.02;74.35
29985;BME280;17387;42.690;23.328;2022-09-13T05:14:08;47622.13;;;-144.02;73.32
29985;BME280;17387;42.690;23.328;2022-09-13T05:16:34;47599.78;;;-144.02;73.53
29985;BME280;17387;42.690;23.328;2022-09-13T05:19:00;47591.66;;;-144.02;72.85
29985;BME280;17387;42.690;23.328;2022-09-13T05:21:26;47630.25;;;-144.02;71.81
29985;BME280;17387;42.690;23.328;2022-09-13T05:23:55;47622.13;;;-144.02;71.04
29985;BME280;17387;42.690;23.328;2022-09-13T05:26:22;47571.38;;;-144.02;69.65
29985;BME280;17387;42.690;23.328;2022-09-13T05:28:48;47595.72;;;-144.02;69.94
29985;BME280;17387;42.690;23.328;2022-09-13T05:31:26;47591.66;;;-144.02;69.42
29985;BME280;17387;42.690;23.328;2022-09-13T05:33:55;47579.47;;;-144.02;67.96
29985;BME280;17387;42.690;23.328;2022-09-13T05:36:21;47569.31;;;-144.02;68.07
29985;BME280;17387;42.690;23.328;2022-09-13T05:38:47;47583.53;;;-144.02;68.05
29985;BME280;17387;42.690;23.328;2022-09-13T05:41:12;47605.88;;;-144.02;68.31
29985;BME280;17387;42.690;23.328;2022-09-13T05:43:38;47585.56;;;-144.02;67.21
29985;BME280;17387;42.690;23.328;2022-09-13T05:46:06;47591.66;;;-144.02;67.81
29985;BME280;17387;42.690;23.328;2022-09-13T05:48:33;47595.72;;;-144.02;67.54
29985;BME280;17387;42.690;23.328;2022-09-13T05:53:37;47620.09;;;-144.02;67.25
29985;BME280;17387;42.690;23.328;2022-09-13T05:56:13;47634.31;;;-144.02;67.63
29985;BME280;17387;42.690;23.328;2022-09-13T05:58:40;47579.47;;;-144.02;68.00
29985;BME280;17387;42.690;23.328;2022-09-13T06:01:06;47581.50;;;-144.02;67.59
29985;BME280;17387;42.690;23.328;2022-09-13T06:03:32;47605.88;;;-144.02;68.58
29985;BME280;17387;42.690;23.328;2022-09-13T06:05:58;47656.66;;;-144.02;68.16
29985;BME280;17387;42.690;23.328;2022-09-13T06:08:28;47591.66;;;-144.02;68.42
29985;BME280;17387;42.690;23.328;2022-09-13T06:10:59;47577.44;;;-144.02;68.40
29985;BME280;17387;42.690;23.328;2022-09-13T06:13:25;47652.59;;;-144.02;68.00
29985;BME280;17387;42.690;23.328;2022-09-13T06:15:51;47569.31;;;-144.02;68.29
29985;BME280;17387;42.690;23.328;2022-09-13T06:18:17;47607.91;;;-144.02;67.69
29985;BME280;17387;42.690;23.328;2022-09-13T06:20:43;47579.47;;;-144.02;67.94
29985;BME280;17387;42.690;23.328;2022-09-13T06:23:08;47587.59;;;-144.02;68.06
29985;BME280;17387;42.690;23.328;2022-09-13T06:25:34;47593.69;;;-144.02;67.45
29985;BME280;17387;42.690;23.328;2022-09-13T06:27:59;47567.28;;;-144.02;67.41
29985;BME280;17387;42.690;23.328;2022-09-13T06:30:25;47585.56;;;-144.02;67.37
29985;BME280;17387;42.690;23.328;2022-09-13T06:32:50;47579.47;;;-144.02;67.04
29985;BME280;17387;42.690;23.328;2022-09-13T06:35:15;47575.44;;;-144.02;67.13
29985;BME280;17387;42.690;23.328;2022-09-13T06:37:42;47567.28;;;-144.02;66.51
29985;BME280;17387;42.690;23.328;2022-09-13T06:40:08;47565.28;;;-144.02;65.97
29985;BME280;17387;42.690;23.328;2022-09-13T06:42:34;47605.88;;;-144.02;66.98
29985;BME280;17387;42.690;23.328;2022-09-13T06:45:00;47668.84;;;-144.02;66.71
29985;BME280;17387;42.690;23.328;2022-09-13T06:47:25;47603.84;;;-144.02;66.44
29985;BME280;17387;42.690;23.328;2022-09-13T06:49:51;47583.53;;;-144.02;65.45
29985;BME280;17387;42.690;23.328;2022-09-13T06:52:16;47636.34;;;-144.02;64.83
29985;BME280;17387;42.690;23.328;2022-09-13T06:54:42;47583.53;;;-144.02;64.95
29985;BME280;17387;42.690;23.328;2022-09-13T06:57:07;47603.84;;;-144.02;65.32
29985;BME280;17387;42.690;23.328;2022-09-13T06:59:33;47549.03;;;-144.02;64.70
29985;BME280;17387;42.690;23.328;2022-09-13T07:01:59;47616.03;;;-144.02;64.42
29985;BME280;17387;42.690;23.328;2022-09-13T07:04:25;47652.59;;;-144.02;63.63
29985;BME280;17387;42.690;23.328;2022-09-13T07:06:56;47555.13;;;-144.02;64.47
29985;BME280;17387;42.690;23.328;2022-09-13T07:09:22;47532.78;;;-144.02;64.63
29985;BME280;17387;42.690;23.328;2022-09-13T07:11:50;47565.28;;;-144.02;63.76
29985;BME280;17387;42.690;23.328;2022-09-13T07:14:27;47599.78;;;-144.02;64.54
29985;BME280;17387;42.690;23.328;2022-09-13T07:16:53;47609.94;;;-144.02;64.43
29985;BME280;17387;42.690;23.328;2022-09-13T07:19:21;47571.38;;;-144.02;63.45
29985;BME280;17387;42.690;23.328;2022-09-13T07:21:48;47599.78;;;-144.02;62.93
29985;BME280;17387;42.690;23.328;2022-09-13T07:24:15;47597.75;;;-144.02;63.22
29985;BME280;17387;42.690;23.328;2022-09-13T07:26:41;47563.22;;;-144.02;63.09
29985;BME280;17387;42.690;23.328;2022-09-13T07:29:09;47563.22;;;-144.02;61.79
29985;BME280;17387;42.690;23.328;2022-09-13T07:31:37;47599.78;;;-144.02;61.50
29985;BME280;17387;42.690;23.328;2022-09-13T07:34:05;47561.22;;;-144.02;60.22
29985;BME280;17387;42.690;23.328;2022-09-13T07:36:33;47577.44;;;-144.02;59.49
29985;BME280;17387;42.690;23.328;2022-09-13T07:38:59;47585.56;;;-144.02;58.95
29985;BME280;17387;42.690;23.328;2022-09-13T07:41:27;47520.59;;;-144.02;59.26
29985;BME280;17387;42.690;23.328;2022-09-13T07:43:53;47605.88;;;-144.02;57.29
29985;BME280;17387;42.690;23.328;2022-09-13T07:46:21;47575.44;;;-144.02;57.99
29985;BME280;17387;42.690;23.328;2022-09-13T07:48:47;47559.19;;;-144.02;57.41
29985;BME280;17387;42.690;23.328;2022-09-13T07:53:40;47595.72;;;-144.02;58.29
29985;BME280;17387;42.690;23.328;2022-09-13T07:56:11;47542.94;;;-144.02;58.21
29985;BME280;17387;42.690;23.328;2022-09-13T07:58:38;47577.44;;;-144.02;57.85
29985;BME280;17387;42.690;23.328;2022-09-13T08:01:08;47563.22;;;-144.02;55.99
29985;BME280;17387;42.690;23.328;2022-09-13T08:03:35;47577.44;;;-144.02;56.32
29985;BME280;17387;42.690;23.328;2022-09-13T08:06:02;47575.44;;;-144.02;56.10
29985;BME280;17387;42.690;23.328;2022-09-13T08:08:28;47569.31;;;-144.02;54.74
29985;BME280;17387;42.690;23.328;2022-09-13T08:10:53;47553.09;;;-144.02;54.32
29985;BME280;17387;42.690;23.328;2022-09-13T08:13:19;47587.59;;;-144.02;54.71
29985;BME280;17387;42.690;23.328;2022-09-13T08:15:45;47526.69;;;-144.02;55.09
29985;BME280;17387;42.690;23.328;2022-09-13T08:18:10;47549.03;;;-144.02;53.88
29985;BME280;17387;42.690;23.328;2022-09-13T08:20:37;47528.72;;;-144.02;53.65
29985;BME280;17387;42.690;23.328;2022-09-13T08:23:03;47544.97;;;-144.02;49.89
29985;BME280;17387;42.690;23.328;2022-09-13T08:25:36;47587.59;;;-144.02;49.99
29985;BME280;17387;42.690;23.328;2022-09-13T08:28:15;47498.25;;;-144.02;51.46
29985;BME280;17387;42.690;23.328;2022-09-13T08:30:40;47551.06;;;-144.02;51.91
29985;BME280;17387;42.690;23.328;2022-09-13T08:33:08;47563.22;;;-144.02;51.68
29985;BME280;17387;42.690;23.328;2022-09-13T08:35:34;47538.88;;;-144.02;50.13
29985;BME280;17387;42.690;23.328;2022-09-13T08:38:00;47532.78;;;-144.02;49.81
29985;BME280;17387;42.690;23.328;2022-09-13T08:40:29;47526.69;;;-144.02;49.97
29985;BME280;17387;42.690;23.328;2022-09-13T08:45:35;47595.72;;;-144.02;48.05
29985;BME280;17387;42.690;23.328;2022-09-13T08:48:10;47473.88;;;-144.02;48.30
29985;BME280;17387;42.690;23.328;2022-09-13T08:50:38;47530.75;;;-144.02;47.02
29985;BME280;17387;42.690;23.328;2022-09-13T08:53:25;47518.56;;;-144.02;46.01
29985;BME280;17387;42.690;23.328;2022-09-13T09:06:28;47508.41;;;-144.02;43.94
29985;BME280;17387;42.690;23.328;2022-09-13T09:09:02;47530.75;;;-144.02;41.07
29985;BME280;17387;42.690;23.328;2022-09-13T09:11:39;47571.38;;;-144.02;40.84
29985;BME280;17387;42.690;23.328;2022-09-13T09:14:32;47457.63;;;-144.02;39.80
29985;BME280;17387;42.690;23.328;2022-09-13T09:17:16;47510.44;;;-144.02;41.00
29985;BME280;17387;42.690;23.328;2022-09-13T09:19:45;47532.78;;;-144.02;43.14
29985;BME280;17387;42.690;23.328;2022-09-13T09:22:17;47461.69;;;-144.02;43.77
29985;BME280;17387;42.690;23.328;2022-09-13T09:24:50;47504.34;;;-144.02;43.85
29985;BME280;17387;42.690;23.328;2022-09-13T09:27:19;47502.31;;;-144.02;43.02
29985;BME280;17387;42.690;23.328;2022-09-13T09:29:47;47502.31;;;-144.02;41.60
29985;BME280;17387;42.690;23.328;2022-09-13T09:33:07;47542.94;;;-144.02;42.09
29985;BME280;17387;42.690;23.328;2022-09-13T09:38:12;47490.13;;;-144.02;40.83
29985;BME280;17387;42.690;23.328;2022-09-13T09:40:42;47510.44;;;-144.02;40.21
29985;BME280;17387;42.690;23.328;2022-09-13T09:43:18;47486.06;;;-144.02;40.38
29985;BME280;17387;42.690;23.328;2022-09-13T09:45:45;47526.69;;;-144.02;40.34
29985;BME280;17387;42.690;23.328;2022-09-13T09:48:17;47475.91;;;-144.02;40.50
29985;BME280;17387;42.690;23.328;2022-09-13T09:50:48;47504.34;;;-144.02;40.81
29985;BME280;17387;42.690;23.328;2022-09-13T09:53:27;47498.25;;;-144.02;40.53
29985;BME280;17387;42.690;23.328;2022-09-13T09:58:44;47473.88;;;-144.02;40.51
29985;BME280;17387;42.690;23.328;2022-09-13T10:01:32;47516.53;;;-144.02;41.09
29985;BME280;17387;42.690;23.328;2022-09-13T10:04:18;47482.00;;;-144.02;40.73
29985;BME280;17387;42.690;23.328;2022-09-13T10:06:46;47482.00;;;-144.02;40.87
29985;BME280;17387;42.690;23.328;2022-09-13T10:11:50;47514.50;;;-144.02;41.53
29985;BME280;17387;42.690;23.328;2022-09-13T10:14:44;47538.88;;;-144.02;40.73
29985;BME280;17387;42.690;23.328;2022-09-13T10:22:23;47494.19;;;-144.02;40.50
29985;BME280;17387;42.690;23.328;2022-09-13T10:24:49;47465.75;;;-144.02;40.04
29985;BME280;17387;42.690;23.328;2022-09-13T10:27:37;47492.16;;;-144.02;40.69
29985;BME280;17387;42.690;23.328;2022-09-13T10:30:07;47506.38;;;-144.02;40.52
29985;BME280;17387;42.690;23.328;2022-09-13T10:32:54;47471.84;;;-144.02;40.09
29985;BME280;17387;42.690;23.328;2022-09-13T10:35:20;47488.09;;;-144.02;39.90
29985;BME280;17387;42.690;23.328;2022-09-13T10:37:46;47477.94;;;-144.02;39.78
29985;BME280;17387;42.690;23.328;2022-09-13T10:40:19;47514.50;;;-144.02;39.37
29985;BME280;17387;42.690;23.328;2022-09-13T10:42:58;47494.19;;;-144.02;38.38
29985;BME280;17387;42.690;23.328;2022-09-13T10:45:26;47473.88;;;-144.02;38.34
29985;BME280;17387;42.690;23.328;2022-09-13T10:48:03;47451.53;;;-144.02;38.04
29985;BME280;17387;42.690;23.328;2022-09-13T10:50:29;47445.44;;;-144.02;37.77
29985;BME280;17387;42.690;23.328;2022-09-13T10:53:00;47571.38;;;-144.02;38.79
29985;BME280;17387;42.690;23.328;2022-09-13T10:55:37;47490.13;;;-144.02;39.01
29985;BME280;17387;42.690;23.328;2022-09-13T11:37:17;47471.84;;;-144.02;35.47
29985;BME280;17387;42.690;23.328;2022-09-13T11:45:28;47459.66;;;-144.02;35.93
29985;BME280;17387;42.690;23.328;2022-09-13T11:56:24;47459.66;;;-144.02;35.33
29985;BME280;17387;42.690;23.328;2022-09-13T11:58:51;47475.91;;;-144.02;35.97
29985;BME280;17387;42.690;23.328;2022-09-13T12:01:33;47471.84;;;-144.02;35.74
29985;BME280;17387;42.690;23.328;2022-09-13T12:04:09;47559.19;;;-144.02;35.31
29985;BME280;17387;42.690;23.328;2022-09-13T12:06:53;47396.69;;;-144.02;35.23
29985;BME280;17387;42.690;23.328;2022-09-13T12:09:37;47506.38;;;-144.02;35.23
29985;BME280;17387;42.690;23.328;2022-09-13T12:12:14;47479.97;;;-144.02;35.82
29985;BME280;17387;42.690;23.328;2022-09-13T12:14:48;47457.63;;;-144.02;35.19
29985;BME280;17387;42.690;23.328;2022-09-13T12:17:24;47498.25;;;-144.02;35.61
29985;BME280;17387;42.690;23.328;2022-09-13T12:19:53;47449.50;;;-144.02;35.13
29985;BME280;17387;42.690;23.328;2022-09-13T12:22:23;47508.41;;;-144.02;34.99
29985;BME280;17387;42.690;23.328;2022-09-13T12:25:22;47457.63;;;-144.02;34.92
29985;BME280;17387;42.690;23.328;2022-09-13T12:28:05;47412.94;;;-144.02;34.83
29985;BME280;17387;42.690;23.328;2022-09-13T12:30:43;47457.63;;;-144.02;34.90
29985;BME280;17387;42.690;23.328;2022-09-13T12:33:16;47506.38;;;-144.02;35.06
29985;BME280;17387;42.690;23.328;2022-09-13T12:41:53;47473.88;;;-144.02;34.17
29985;BME280;17387;42.690;23.328;2022-09-13T12:44:25;47449.50;;;-144.02;33.55
29985;BME280;17387;42.690;23.328;2022-09-13T12:49:51;47435.28;;;-144.02;31.76
29985;BME280;17387;42.690;23.328;2022-09-13T12:52:50;47425.13;;;-144.02;32.42
29985;BME280;17387;42.690;23.328;2022-09-13T13:01:08;47400.75;;;-144.02;31.27
29985;BME280;17387;42.690;23.328;2022-09-13T13:06:31;47433.25;;;-144.02;30.03
29985;BME280;17387;42.690;23.328;2022-09-13T13:09:19;47447.47;;;-144.02;33.01
29985;BME280;17387;42.690;23.328;2022-09-13T13:11:48;47524.66;;;-144.02;34.47
29985;BME280;17387;42.690;23.328;2022-09-13T13:20:44;47451.53;;;-144.02;32.15
29985;BME280;17387;42.690;23.328;2022-09-13T13:23:36;47406.84;;;-144.02;31.17
29985;BME280;17387;42.690;23.328;2022-09-13T13:26:11;47404.81;;;-144.02;30.84
29985;BME280;17387;42.690;23.328;2022-09-13T13:36:27;47465.75;;;-144.02;35.85
29985;BME280;17387;42.690;23.328;2022-09-13T13:38:56;47477.94;;;-144.02;35.96
29985;BME280;17387;42.690;23.328;2022-09-13T13:43:59;47457.63;;;-144.02;33.72
29985;BME280;17387;42.690;23.328;2022-09-13T13:46:30;47453.56;;;-144.02;34.42
29985;BME280;17387;42.690;23.328;2022-09-13T13:57:26;47433.25;;;-144.02;32.88
29985;BME280;17387;42.690;23.328;2022-09-13T14:08:45;47408.88;;;-144.02;32.26
29985;BME280;17387;42.690;23.328;2022-09-13T14:14:10;47482.00;;;-144.02;32.54
29985;BME280;17387;42.690;23.328;2022-09-13T14:19:47;47482.00;;;-144.02;32.00
29985;BME280;17387;42.690;23.328;2022-09-13T14:22:18;47425.13;;;-144.02;32.29
29985;BME280;17387;42.690;23.328;2022-09-13T14:24:46;47459.66;;;-144.02;31.77
29985;BME280;17387;42.690;23.328;2022-09-13T14:29:54;47449.50;;;-144.02;32.79
29985;BME280;17387;42.690;23.328;2022-09-13T14:32:26;47469.81;;;-144.02;32.85
29985;BME280;17387;42.690;23.328;2022-09-13T14:34:58;47475.91;;;-144.02;33.38
29985;BME280;17387;42.690;23.328;2022-09-13T14:37:30;47417.00;;;-144.02;32.97
29985;BME280;17387;42.690;23.328;2022-09-13T14:40:00;47412.94;;;-144.02;32.67
29985;BME280;17387;42.690;23.328;2022-09-13T14:42:37;47412.94;;;-144.02;32.47
29985;BME280;17387;42.690;23.328;2022-09-13T14:45:04;47421.06;;;-144.02;33.27
29985;BME280;17387;42.690;23.328;2022-09-13T14:47:36;47453.56;;;-144.02;32.39
29985;BME280;17387;42.690;23.328;2022-09-13T14:50:11;47447.47;;;-144.02;33.04
29985;BME280;17387;42.690;23.328;2022-09-13T14:53:01;47510.44;;;-144.02;33.62
29985;BME280;17387;42.690;23.328;2022-09-13T14:55:44;47457.63;;;-144.02;33.75
29985;BME280;17387;42.690;23.328;2022-09-13T14:58:16;47492.16;;;-144.02;33.82
29985;BME280;17387;42.690;23.328;2022-09-13T15:03:17;47508.41;;;-144.02;34.90
29985;BME280;17387;42.690;23.328;2022-09-13T15:05:51;47492.16;;;-144.02;34.89
29985;BME280;17387;42.690;23.328;2022-09-13T15:11:01;47477.94;;;-144.02;34.39
29985;BME280;17387;42.690;23.328;2022-09-13T15:13:27;47504.34;;;-144.02;34.47
29985;BME280;17387;42.690;23.328;2022-09-13T15:15:53;47471.84;;;-144.02;33.78
29985;BME280;17387;42.690;23.328;2022-09-13T15:20:55;47482.00;;;-144.02;34.57
29985;BME280;17387;42.690;23.328;2022-09-13T15:23:30;47459.66;;;-144.02;34.29
29985;BME280;17387;42.690;23.328;2022-09-13T15:33:46;47477.94;;;-144.02;36.86
29985;BME280;17387;42.690;23.328;2022-09-13T15:36:21;47486.06;;;-144.02;37.24
29985;BME280;17387;42.690;23.328;2022-09-13T15:41:35;47482.00;;;-144.02;37.77
29985;BME280;17387;42.690;23.328;2022-09-13T15:44:04;47486.06;;;-144.02;37.77
29985;BME280;17387;42.690;23.328;2022-09-13T15:46:31;47510.44;;;-144.02;37.49
29985;BME280;17387;42.690;23.328;2022-09-13T15:49:00;47522.63;;;-144.02;37.42
29985;BME280;17387;42.690;23.328;2022-09-13T15:51:26;47475.91;;;-144.02;37.55
29985;BME280;17387;42.690;23.328;2022-09-13T15:53:52;47547.00;;;-144.02;37.72
29985;BME280;17387;42.690;23.328;2022-09-13T15:56:21;47516.53;;;-144.02;37.76
29985;BME280;17387;42.690;23.328;2022-09-13T15:58:51;47479.97;;;-144.02;37.41
29985;BME280;17387;42.690;23.328;2022-09-13T16:01:16;47484.03;;;-144.02;38.04
29985;BME280;17387;42.690;23.328;2022-09-13T16:03:42;47512.47;;;-144.02;38.32
29985;BME280;17387;42.690;23.328;2022-09-13T16:06:08;47475.91;;;-144.02;38.44
29985;BME280;17387;42.690;23.328;2022-09-13T16:08:37;47457.63;;;-144.02;38.74
29985;BME280;17387;42.690;23.328;2022-09-13T16:11:03;47498.25;;;-144.02;38.99
29985;BME280;17387;42.690;23.328;2022-09-13T16:13:30;47479.97;;;-144.02;39.11
29985;BME280;17387;42.690;23.328;2022-09-13T16:15:55;47482.00;;;-144.02;39.49
29985;BME280;17387;42.690;23.328;2022-09-13T16:18:22;47518.56;;;-144.02;39.80
29985;BME280;17387;42.690;23.328;2022-09-13T16:20:48;47530.75;;;-144.02;40.18